Time;durP1;ratioP1;P1;durP2;ratioP2;P2;SDS_P1;SDS_P2;PMS_P1;PMS_P2;Temp;Humidity;BMP_temperature;BMP_pressure;BME280_temperature;BME280_humidity;BME280_pressure;Samples;Min_cycle;Max_cycle;Signal;HPM_P1;HPM_P2
2024/01/02 00:01:50;;;;;;;0.60;0.60;;;5.40;99.90;;;;;;5072265;28;20718;-91
2024/01/02 00:04:16;;;;;;;0.90;0.90;;;5.40;99.90;;;;;;5072256;28;20257;-90
2024/01/02 00:06:41;;;;;;;0.67;0.67;;;5.40;99.90;;;;;;5063107;28;20284;-91
2024/01/02 00:09:07;;;;;;;0.80;0.80;;;5.40;99.90;;;;;;5054127;28;20436;-91
2024/01/02 00:11:32;;;;;;;1.47;0.90;;;5.30;99.90;;;;;;5054356;28;20269;-92
2024/01/02 00:13:58;;;;;;;0.60;0.60;;;5.30;99.90;;;;;;5072671;28;20181;-91
2024/01/02 00:16:23;;;;;;;0.70;0.70;;;5.20;99.90;;;;;;5053905;28;20269;-91
2024/01/02 00:18:49;;;;;;;1.63;1.53;;;5.20;99.90;;;;;;5053069;28;20273;-92
2024/01/02 00:21:14;;;;;;;0.93;0.90;;;5.10;99.90;;;;;;5072714;28;20638;-91
2024/01/02 00:23:40;;;;;;;0.60;0.60;;;5.10;99.90;;;;;;5068444;28;20182;-91
2024/01/02 00:26:05;;;;;;;0.80;0.80;;;5.10;99.90;;;;;;5072952;28;20189;-91
2024/01/02 00:28:31;;;;;;;0.60;0.60;;;5.10;99.90;;;;;;5071692;28;20209;-91
2024/01/02 00:30:56;;;;;;;0.80;0.80;;;5.00;99.90;;;;;;5053004;28;20176;-92
2024/01/02 00:33:22;;;;;;;8.33;1.13;;;5.00;99.90;;;;;;5052715;28;20213;-92
2024/01/02 00:35:47;;;;;;;1.27;1.27;;;5.00;99.90;;;;;;5054274;28;20638;-92
2024/01/02 00:38:13;;;;;;;1.03;0.80;;;5.00;99.90;;;;;;5068512;28;20182;-91
2024/01/02 00:40:39;;;;;;;0.60;0.60;;;4.90;99.90;;;;;;5072432;28;20258;-91
2024/01/02 00:43:04;;;;;;;0.50;0.50;;;4.90;99.90;;;;;;5071644;28;20174;-92
2024/01/02 00:45:30;;;;;;;0.60;0.60;;;4.90;99.90;;;;;;5061499;28;20186;-91
2024/01/02 00:47:56;;;;;;;0.87;0.77;;;4.90;99.90;;;;;;5053673;28;20206;-91
2024/01/02 00:50:21;;;;;;;0.60;0.60;;;4.80;99.90;;;;;;5073661;28;20217;-91
2024/01/02 00:52:47;;;;;;;0.60;0.60;;;4.80;99.90;;;;;;5075371;28;20464;-92
2024/01/02 00:55:13;;;;;;;0.60;0.60;;;4.80;99.90;;;;;;5057559;28;20650;-92
2024/01/02 00:57:38;;;;;;;0.70;0.70;;;4.70;99.90;;;;;;5075972;28;20420;-91
2024/01/02 01:00:05;;;;;;;0.70;0.70;;;4.70;99.90;;;;;;5075884;28;20176;-92
2024/01/02 01:02:31;;;;;;;0.80;0.80;;;4.70;99.90;;;;;;5073972;28;20510;-90
2024/01/02 01:04:57;;;;;;;0.77;0.77;;;4.60;99.90;;;;;;5064429;28;20432;-90
2024/01/02 01:07:23;;;;;;;0.57;0.57;;;4.60;99.90;;;;;;5070760;28;20753;-92
2024/01/02 01:09:49;;;;;;;0.70;0.70;;;4.60;99.90;;;;;;5057995;28;21705;-91
2024/01/02 01:12:14;;;;;;;1.00;1.00;;;4.60;99.90;;;;;;5055763;28;20424;-91
2024/01/02 01:14:40;;;;;;;0.60;0.60;;;4.50;99.90;;;;;;5073572;28;20197;-91
2024/01/02 01:17:06;;;;;;;5.70;1.00;;;4.50;99.90;;;;;;5075558;28;20177;-92
2024/01/02 01:19:32;;;;;;;0.60;0.60;;;4.50;99.90;;;;;;5073644;28;20179;-92
2024/01/02 01:21:58;;;;;;;3.10;2.90;;;4.50;99.90;;;;;;5062744;28;20454;-92
2024/01/02 01:24:23;;;;;;;0.60;0.60;;;4.50;99.90;;;;;;5075202;28;20465;-92
2024/01/02 01:26:52;;;;;;;0.60;0.60;;;4.40;99.90;;;;;;5057450;28;20178;-92
2024/01/02 01:29:22;;;;;;;0.60;0.60;;;4.40;99.90;;;;;;5075247;28;20170;-91
2024/01/02 01:31:48;;;;;;;3.40;0.90;;;4.40;99.90;;;;;;5074617;28;20861;-92
2024/01/02 01:34:14;;;;;;;0.60;0.60;;;4.40;99.90;;;;;;5074521;28;20500;-92
2024/01/02 01:36:39;;;;;;;4.43;1.07;;;4.40;99.90;;;;;;5074321;28;20190;-91
2024/01/02 01:39:05;;;;;;;0.50;0.50;;;4.30;99.90;;;;;;5061308;28;20298;-90
2024/01/02 01:41:30;;;;;;;29.17;1.47;;;4.30;99.90;;;;;;5073954;28;20216;-91
2024/01/02 01:43:57;;;;;;;0.60;0.60;;;4.30;99.90;;;;;;5073049;28;20193;-92
2024/01/02 01:46:23;;;;;;;0.90;0.90;;;4.30;99.90;;;;;;5074472;28;20189;-90
2024/01/02 01:48:49;;;;;;;1.83;1.73;;;4.20;99.90;;;;;;5037463;28;20472;-92
2024/01/02 01:51:15;;;;;;;0.90;0.90;;;4.20;99.90;;;;;;5069831;28;20428;-91
2024/01/02 01:53:43;;;;;;;2.20;2.00;;;4.20;99.90;;;;;;5057059;28;20421;-91
2024/01/02 01:56:09;;;;;;;0.70;0.70;;;4.20;99.90;;;;;;5054838;28;20433;-92
2024/01/02 01:58:34;;;;;;;0.60;0.60;;;4.20;99.90;;;;;;5057002;28;20424;-92
2024/01/02 02:01:00;;;;;;;2.03;1.40;;;4.10;99.90;;;;;;5074217;28;20212;-92
2024/01/02 02:03:27;;;;;;;0.70;0.70;;;4.10;99.90;;;;;;5057296;28;20202;-91
2024/01/02 02:05:53;;;;;;;2.00;1.00;;;4.20;99.90;;;;;;5057038;28;20180;-91
2024/01/02 02:08:18;;;;;;;1.13;1.03;;;4.20;99.90;;;;;;5074531;28;20488;-91
2024/01/02 02:10:44;;;;;;;0.93;0.93;;;4.20;99.90;;;;;;5056165;28;20462;-93
2024/01/02 02:13:10;;;;;;;0.80;0.80;;;4.20;99.90;;;;;;5074896;28;20186;-92
2024/01/02 02:15:38;;;;;;;1.07;0.90;;;4.20;99.90;;;;;;5074222;28;20182;-91
2024/01/02 02:18:04;;;;;;;0.60;0.60;;;4.20;99.90;;;;;;5074779;28;20511;-92
2024/01/02 02:20:30;;;;;;;2.60;2.50;;;4.20;99.90;;;;;;5075024;28;20416;-91
2024/01/02 02:22:56;;;;;;;1.47;1.37;;;4.20;99.90;;;;;;5057176;28;20477;-92
2024/01/02 02:25:21;;;;;;;0.60;0.60;;;4.20;99.90;;;;;;5073228;28;20265;-93
2024/01/02 02:27:47;;;;;;;1.63;1.20;;;4.30;99.90;;;;;;5071329;28;20211;-91
2024/01/02 02:30:13;;;;;;;2.10;2.00;;;4.30;99.90;;;;;;5072869;28;20581;-91
2024/01/02 02:32:38;;;;;;;2.23;1.57;;;4.30;99.90;;;;;;5070754;28;20936;-92
2024/01/02 02:35:05;;;;;;;0.70;0.70;;;4.30;99.90;;;;;;5071257;28;20222;-92
2024/01/02 02:37:31;;;;;;;1.50;1.40;;;4.30;99.90;;;;;;5063043;28;20174;-92
2024/01/02 02:39:56;;;;;;;2.10;1.10;;;4.30;99.90;;;;;;5069971;28;20564;-91
2024/01/02 02:42:22;;;;;;;0.90;0.90;;;4.30;99.90;;;;;;5072523;28;20174;-92
2024/01/02 02:44:47;;;;;;;1.00;1.00;;;4.30;99.90;;;;;;5073555;28;20691;-92
2024/01/02 02:47:13;;;;;;;1.00;1.00;;;4.30;99.90;;;;;;5071041;28;20658;-92
2024/01/02 02:49:39;;;;;;;0.70;0.70;;;4.40;99.90;;;;;;5074098;28;20231;-92
2024/01/02 02:52:05;;;;;;;1.03;1.03;;;4.40;99.90;;;;;;5074122;28;20264;-92
2024/01/02 02:54:30;;;;;;;1.23;1.23;;;4.40;99.90;;;;;;5073240;28;20461;-93
2024/01/02 02:56:56;;;;;;;3.40;1.50;;;4.40;99.90;;;;;;5073893;28;20471;-92
2024/01/02 02:59:21;;;;;;;0.97;0.97;;;4.40;99.90;;;;;;5072823;28;20590;-92
2024/01/02 03:01:47;;;;;;;4.10;2.03;;;4.40;99.90;;;;;;5073737;28;20240;-91
2024/01/02 03:04:13;;;;;;;2.10;1.53;;;4.40;99.90;;;;;;5072458;28;20201;-92
2024/01/02 03:06:38;;;;;;;1.27;1.10;;;4.40;99.90;;;;;;5055995;28;20229;-92
2024/01/02 03:09:04;;;;;;;0.70;0.70;;;4.50;99.90;;;;;;5073581;28;20432;-91
2024/01/02 03:11:30;;;;;;;1.10;1.10;;;4.40;99.90;;;;;;5055894;28;20212;-92
2024/01/02 03:13:55;;;;;;;1.80;1.70;;;4.40;99.90;;;;;;5070760;28;20186;-92
2024/01/02 03:16:23;;;;;;;0.80;0.80;;;4.40;99.90;;;;;;5073165;28;20204;-92
2024/01/02 03:18:48;;;;;;;1.10;1.00;;;4.50;99.90;;;;;;5073714;28;20185;-92
2024/01/02 03:21:14;;;;;;;1.00;1.00;;;4.50;99.90;;;;;;5056052;28;20924;-92
2024/01/02 03:23:40;;;;;;;4.30;1.23;;;4.40;99.90;;;;;;5070740;28;20652;-92
2024/01/02 03:26:05;;;;;;;0.97;0.97;;;4.40;99.90;;;;;;5072834;28;20189;-92
2024/01/02 03:28:31;;;;;;;2.20;1.87;;;4.40;99.90;;;;;;5073186;28;20292;-93
2024/01/02 03:30:57;;;;;;;0.90;0.90;;;4.30;99.90;;;;;;5072842;28;20190;-92
2024/01/02 03:33:22;;;;;;;0.60;0.60;;;4.30;99.90;;;;;;5072157;28;20653;-93
2024/01/02 03:35:48;;;;;;;0.77;0.77;;;4.30;99.90;;;;;;5072432;28;20840;-92
2024/01/02 03:38:14;;;;;;;1.17;1.17;;;4.30;99.90;;;;;;5069330;28;20190;-92
2024/01/02 03:40:39;;;;;;;1.37;1.37;;;4.20;99.90;;;;;;5055848;28;20231;-93
2024/01/02 03:43:05;;;;;;;2.93;2.53;;;4.20;99.90;;;;;;5072885;28;21022;-92
2024/01/02 03:45:31;;;;;;;1.60;0.90;;;4.20;99.90;;;;;;5072057;28;20698;-92
2024/01/02 03:47:56;;;;;;;0.70;0.70;;;4.10;99.90;;;;;;5070993;28;20278;-93
2024/01/02 03:50:23;;;;;;;2.07;1.97;;;4.10;99.90;;;;;;5071885;28;20178;-93
2024/01/02 03:52:48;;;;;;;3.83;1.83;;;4.10;99.90;;;;;;5073679;28;20186;-93
2024/01/02 03:55:14;;;;;;;0.80;0.80;;;4.10;99.90;;;;;;5071763;28;20452;-93
2024/01/02 03:57:39;;;;;;;1.77;1.70;;;4.00;99.90;;;;;;5072621;28;20189;-93
2024/01/02 04:00:05;;;;;;;1.17;1.17;;;4.00;99.90;;;;;;5055618;28;20178;-93
2024/01/02 04:02:31;;;;;;;0.70;0.70;;;4.00;99.90;;;;;;5035742;28;20180;-92
2024/01/02 04:04:57;;;;;;;0.70;0.70;;;3.90;99.90;;;;;;5065157;28;20825;-92
2024/01/02 04:07:22;;;;;;;0.70;0.70;;;3.90;99.90;;;;;;5053858;28;20294;-91
2024/01/02 04:09:48;;;;;;;1.53;1.23;;;3.90;99.90;;;;;;5067727;28;20185;-93
2024/01/02 04:12:13;;;;;;;10.00;1.20;;;3.90;99.90;;;;;;5056839;28;20683;-93
2024/01/02 04:14:39;;;;;;;0.70;0.70;;;3.90;99.90;;;;;;5051584;28;20662;-93
2024/01/02 04:17:04;;;;;;;1.70;1.60;;;3.80;99.90;;;;;;5072537;28;20851;-92
2024/01/02 04:19:30;;;;;;;1.10;1.10;;;3.80;99.90;;;;;;5072830;28;20178;-93
2024/01/02 04:21:55;;;;;;;1.63;1.57;;;3.80;99.90;;;;;;5071970;28;20178;-92
2024/01/02 04:24:22;;;;;;;0.80;0.80;;;3.80;99.90;;;;;;5074503;28;20210;-93
2024/01/02 04:26:47;;;;;;;0.80;0.80;;;3.80;99.90;;;;;;5043151;28;20261;-93
2024/01/02 04:29:12;;;;;;;1.37;1.27;;;3.80;99.90;;;;;;5075954;28;20565;-93
2024/01/02 04:31:38;;;;;;;4.70;1.57;;;3.80;99.90;;;;;;5056404;28;20216;-93
2024/01/02 04:34:03;;;;;;;1.67;1.10;;;3.70;99.90;;;;;;5071011;28;20196;-92
2024/01/02 04:36:29;;;;;;;1.53;1.43;;;3.70;99.90;;;;;;5072339;28;20257;-92
2024/01/02 04:38:54;;;;;;;0.60;0.60;;;3.70;99.90;;;;;;5076052;28;20185;-92
2024/01/02 04:41:20;;;;;;;0.70;0.70;;;3.70;99.90;;;;;;5076188;28;20182;-93
2024/01/02 04:43:45;;;;;;;0.87;0.87;;;3.80;99.90;;;;;;5054146;28;20174;-92
2024/01/02 04:46:11;;;;;;;1.70;1.60;;;3.80;99.90;;;;;;5058957;28;20063;-93
2024/01/02 04:48:37;;;;;;;0.93;0.93;;;3.70;99.90;;;;;;5076277;28;20194;-92
2024/01/02 04:51:03;;;;;;;0.80;0.80;;;3.70;99.90;;;;;;5076434;28;20178;-93
2024/01/02 04:53:28;;;;;;;0.70;0.70;;;3.70;99.90;;;;;;5076685;28;20239;-92
2024/01/02 04:55:54;;;;;;;0.70;0.70;;;3.70;99.90;;;;;;5076407;28;20685;-92
2024/01/02 04:58:20;;;;;;;2.27;1.07;;;3.70;99.90;;;;;;5076043;28;20278;-93
2024/01/02 05:00:46;;;;;;;0.87;0.87;;;3.70;99.90;;;;;;5070733;28;20189;-92
2024/01/02 05:03:11;;;;;;;0.90;0.90;;;3.70;99.90;;;;;;5056990;28;20451;-93
2024/01/02 05:05:37;;;;;;;1.37;1.27;;;3.70;99.90;;;;;;5061472;28;20197;-92
2024/01/02 05:08:03;;;;;;;0.70;0.70;;;3.70;99.90;;;;;;5072640;28;21038;-92
2024/01/02 05:10:28;;;;;;;0.97;0.97;;;3.70;99.90;;;;;;5076263;28;20182;-92
2024/01/02 05:12:54;;;;;;;1.57;1.57;;;3.70;99.90;;;;;;5076013;28;20181;-93
2024/01/02 05:15:19;;;;;;;0.70;0.70;;;3.70;99.90;;;;;;5069505;28;20182;-93
2024/01/02 05:17:45;;;;;;;0.70;0.70;;;3.70;99.90;;;;;;5075925;28;20211;-93
2024/01/02 05:20:11;;;;;;;2.00;1.90;;;3.70;99.90;;;;;;5075354;28;20189;-93
2024/01/02 05:22:37;;;;;;;0.80;0.80;;;3.70;99.90;;;;;;5076067;28;20634;-93
2024/01/02 05:25:03;;;;;;;1.03;1.03;;;3.70;99.90;;;;;;5075249;28;20420;-92
2024/01/02 05:27:28;;;;;;;1.93;1.83;;;3.70;99.90;;;;;;5057847;28;20209;-93
2024/01/02 05:29:54;;;;;;;0.70;0.70;;;3.70;99.90;;;;;;5074410;28;20178;-93
2024/01/02 05:32:19;;;;;;;0.70;0.70;;;3.70;99.90;;;;;;5065888;28;20549;-92
2024/01/02 05:34:45;;;;;;;0.80;0.80;;;3.60;99.90;;;;;;5066148;28;20695;-93
2024/01/02 05:37:10;;;;;;;0.70;0.70;;;3.60;99.90;;;;;;5073993;28;20224;-92
2024/01/02 05:39:36;;;;;;;0.70;0.70;;;3.60;99.90;;;;;;5075722;28;20634;-93
2024/01/02 05:42:01;;;;;;;3.70;1.60;;;3.60;99.90;;;;;;5057651;28;20190;-93
2024/01/02 05:44:27;;;;;;;5.83;2.60;;;3.60;99.90;;;;;;5056541;28;20184;-92
2024/01/02 05:46:52;;;;;;;1.73;1.00;;;3.60;99.90;;;;;;5057502;28;20189;-93
2024/01/02 05:49:18;;;;;;;3.63;1.13;;;3.60;99.90;;;;;;5075371;28;20186;-93
2024/01/02 05:51:43;;;;;;;0.80;0.80;;;3.60;99.90;;;;;;5056895;28;20556;-93
2024/01/02 05:54:09;;;;;;;0.67;0.67;;;3.60;99.90;;;;;;5056789;28;20185;-93
2024/01/02 05:56:34;;;;;;;0.90;0.90;;;3.60;99.90;;;;;;5074793;28;20194;-93
2024/01/02 05:59:00;;;;;;;0.70;0.70;;;3.60;99.90;;;;;;5057970;28;20182;-92
2024/01/02 06:01:25;;;;;;;3.07;1.73;;;3.60;99.90;;;;;;5068078;28;20186;-92
2024/01/02 06:03:50;;;;;;;1.60;1.60;;;3.70;99.90;;;;;;5056326;28;20656;-92
2024/01/02 06:06:16;;;;;;;0.70;0.70;;;3.60;99.90;;;;;;5074542;28;20217;-92
2024/01/02 06:08:42;;;;;;;2.73;2.40;;;3.60;99.90;;;;;;5073823;28;21634;-92
2024/01/02 06:11:09;;;;;;;0.60;0.60;;;3.60;99.90;;;;;;5055567;28;20607;-93
2024/01/02 06:13:35;;;;;;;0.83;0.83;;;3.60;99.90;;;;;;5072322;28;20443;-90
2024/01/02 06:16:01;;;;;;;0.70;0.70;;;3.70;99.90;;;;;;5073723;28;20934;-91
2024/01/02 06:18:26;;;;;;;1.23;1.23;;;3.70;99.90;;;;;;5055552;28;20444;-90
2024/01/02 06:20:52;;;;;;;0.97;0.97;;;3.70;99.90;;;;;;5077873;28;20537;-92
2024/01/02 06:23:17;;;;;;;2.30;1.20;;;3.70;99.90;;;;;;5076818;28;20186;-93
2024/01/02 06:25:43;;;;;;;0.70;0.70;;;3.80;99.90;;;;;;5055716;28;20193;-92
2024/01/02 06:28:08;;;;;;;1.10;1.07;;;3.70;99.90;;;;;;5072053;28;20222;-92
2024/01/02 06:30:34;;;;;;;0.60;0.60;;;3.70;99.90;;;;;;5057545;28;20428;-92
2024/01/02 06:32:59;;;;;;;1.07;1.07;;;3.70;99.90;;;;;;5075641;28;20220;-92
2024/01/02 06:35:26;;;;;;;0.70;0.70;;;3.70;99.90;;;;;;5074083;28;20178;-93
2024/01/02 06:37:51;;;;;;;0.67;0.67;;;3.70;99.90;;;;;;5072499;28;20551;-92
2024/01/02 06:40:18;;;;;;;0.90;0.90;;;3.70;99.90;;;;;;5057190;28;20425;-93
2024/01/02 06:42:44;;;;;;;1.47;1.37;;;3.70;99.90;;;;;;5073994;28;20181;-92
2024/01/02 06:45:09;;;;;;;0.60;0.60;;;3.70;99.90;;;;;;5056289;28;20429;-92
2024/01/02 06:47:35;;;;;;;0.77;0.77;;;3.70;99.90;;;;;;5072722;28;20202;-91
2024/01/02 06:50:01;;;;;;;0.87;0.87;;;3.70;99.90;;;;;;5055373;28;20186;-91
2024/01/02 06:52:27;;;;;;;0.60;0.60;;;3.70;99.90;;;;;;5053333;28;20191;-93
2024/01/02 06:54:52;;;;;;;0.80;0.80;;;3.80;99.90;;;;;;5056397;28;20940;-92
2024/01/02 06:57:18;;;;;;;0.80;0.80;;;3.80;99.90;;;;;;5070905;28;21031;-93
2024/01/02 06:59:45;;;;;;;0.70;0.70;;;3.70;99.90;;;;;;5074084;28;20190;-92
2024/01/02 07:02:10;;;;;;;2.40;1.23;;;3.70;99.90;;;;;;5072864;28;20201;-92
2024/01/02 07:04:39;;;;;;;0.80;0.80;;;3.80;99.90;;;;;;5053293;28;20932;-91
2024/01/02 07:07:05;;;;;;;0.70;0.70;;;3.80;99.90;;;;;;5055450;28;20217;-92
2024/01/02 07:09:30;;;;;;;0.60;0.60;;;3.80;99.90;;;;;;5055460;28;20451;-94
2024/01/02 07:11:56;;;;;;;0.77;0.77;;;3.80;99.90;;;;;;5074255;28;20210;-92
2024/01/02 07:14:23;;;;;;;1.13;1.10;;;3.80;99.90;;;;;;5073702;28;20600;-92
2024/01/02 07:16:48;;;;;;;0.70;0.70;;;3.80;99.90;;;;;;5055700;28;20182;-95
2024/01/02 07:19:13;;;;;;;0.60;0.60;;;3.80;99.90;;;;;;5072268;28;20955;-95
2024/01/02 07:21:39;;;;;;;0.70;0.70;;;3.80;99.90;;;;;;5073622;28;20186;-95
2024/01/02 07:24:05;;;;;;;0.80;0.80;;;3.80;99.90;;;;;;5055992;28;20789;-95
2024/01/02 07:26:30;;;;;;;0.60;0.60;;;3.80;99.90;;;;;;5074326;28;20216;-92
2024/01/02 07:28:56;;;;;;;0.60;0.60;;;3.80;99.90;;;;;;5072321;28;20214;-94
2024/01/02 07:31:21;;;;;;;2.20;0.97;;;3.80;99.90;;;;;;5073620;28;20189;-94
2024/01/02 07:33:47;;;;;;;2.10;1.27;;;3.80;99.90;;;;;;5073408;28;20187;-94
2024/01/02 07:36:12;;;;;;;0.60;0.60;;;3.90;99.90;;;;;;5052498;28;20217;-91
2024/01/02 07:38:38;;;;;;;1.20;1.20;;;3.90;99.90;;;;;;5071863;28;20182;-91
2024/01/02 07:41:03;;;;;;;1.63;1.40;;;4.00;99.90;;;;;;5070551;28;20608;-91
2024/01/02 07:43:30;;;;;;;1.03;1.03;;;4.00;99.90;;;;;;5054527;28;20185;-91
2024/01/02 07:45:56;;;;;;;3.70;1.47;;;4.10;99.90;;;;;;5071421;28;20174;-89
2024/01/02 07:48:22;;;;;;;0.60;0.60;;;4.00;99.90;;;;;;5071551;28;20480;-90
2024/01/02 07:50:47;;;;;;;0.73;0.73;;;4.00;99.90;;;;;;5062846;28;21058;-90
2024/01/02 07:53:19;;;;;;;0.90;0.87;;;4.00;99.90;;;;;;5065303;28;20385;-89
2024/01/02 07:55:46;;;;;;;0.80;0.80;;;4.00;99.90;;;;;;5069128;28;20178;-92
2024/01/02 07:58:11;;;;;;;0.70;0.70;;;4.00;99.90;;;;;;5067700;28;20437;-91
2024/01/02 08:00:37;;;;;;;0.70;0.70;;;4.00;99.90;;;;;;5066326;28;20451;-91
2024/01/02 08:03:02;;;;;;;1.13;1.03;;;4.10;99.90;;;;;;5069593;28;20184;-91
2024/01/02 08:05:28;;;;;;;0.60;0.60;;;4.00;99.90;;;;;;5066784;28;20645;-92
2024/01/02 08:07:53;;;;;;;1.03;1.03;;;4.10;99.90;;;;;;5045568;28;20241;-91
2024/01/02 08:10:20;;;;;;;0.80;0.80;;;4.10;99.90;;;;;;5051249;28;20293;-90
2024/01/02 08:12:45;;;;;;;0.60;0.60;;;4.10;99.90;;;;;;5053121;28;20519;-90
2024/01/02 08:15:12;;;;;;;0.60;0.60;;;4.20;99.90;;;;;;5039104;28;20641;-89
2024/01/02 08:17:37;;;;;;;0.60;0.60;;;4.10;99.90;;;;;;5053108;28;20208;-90
2024/01/02 08:20:04;;;;;;;0.60;0.60;;;4.20;99.90;;;;;;5068538;28;20782;-93
2024/01/02 08:22:29;;;;;;;0.90;0.90;;;4.20;99.90;;;;;;5065732;28;20182;-89
2024/01/02 08:24:55;;;;;;;0.60;0.60;;;4.20;99.90;;;;;;5063208;28;20448;-91
2024/01/02 08:27:24;;;;;;;2.67;1.30;;;4.20;99.90;;;;;;5052271;28;20557;-90
2024/01/02 08:29:49;;;;;;;11.33;2.47;;;4.20;99.90;;;;;;5063558;28;20213;-89
2024/01/02 08:32:15;;;;;;;0.70;0.70;;;4.20;99.90;;;;;;5068864;28;20421;-89
2024/01/02 08:34:40;;;;;;;0.60;0.60;;;4.20;99.90;;;;;;5070319;28;20264;-88
2024/01/02 08:37:06;;;;;;;0.80;0.80;;;4.20;99.90;;;;;;5051893;28;20177;-92
2024/01/02 08:39:31;;;;;;;0.60;0.60;;;4.20;99.90;;;;;;5070215;28;20201;-91
2024/01/02 08:41:57;;;;;;;0.70;0.70;;;4.20;99.90;;;;;;5071199;28;20648;-90
2024/01/02 08:44:22;;;;;;;0.70;0.70;;;4.20;99.90;;;;;;5070286;28;20212;-92
2024/01/02 08:46:48;;;;;;;0.60;0.60;;;4.20;99.90;;;;;;5070968;28;20638;-91
2024/01/02 08:49:14;;;;;;;0.60;0.60;;;4.20;99.90;;;;;;5069673;28;20224;-91
2024/01/02 08:51:39;;;;;;;0.60;0.60;;;4.20;99.90;;;;;;5053493;28;20522;-90
2024/01/02 08:54:05;;;;;;;0.80;0.80;;;4.30;99.90;;;;;;5071399;28;20427;-90
2024/01/02 08:56:30;;;;;;;0.70;0.70;;;4.20;99.90;;;;;;5069687;28;20197;-90
2024/01/02 08:58:56;;;;;;;1.27;1.27;;;4.30;99.90;;;;;;5046920;28;20631;-90
2024/01/02 09:01:24;;;;;;;0.60;0.60;;;4.30;99.90;;;;;;5065079;28;20152;-89
2024/01/02 09:03:49;;;;;;;0.67;0.67;;;4.20;99.90;;;;;;5070746;28;20206;-88
2024/01/02 09:06:19;;;;;;;1.07;1.07;;;4.30;99.90;;;;;;5067893;28;20483;-87
2024/01/02 09:08:45;;;;;;;0.60;0.60;;;4.20;99.90;;;;;;5071197;28;20221;-88
2024/01/02 09:11:11;;;;;;;0.50;0.50;;;4.30;99.90;;;;;;5072880;28;20428;-90
2024/01/02 09:13:37;;;;;;;0.60;0.60;;;4.20;99.90;;;;;;5074002;28;20186;-90
2024/01/02 09:16:02;;;;;;;0.80;0.80;;;4.20;99.90;;;;;;5071430;28;20522;-90
2024/01/02 09:18:28;;;;;;;0.60;0.60;;;4.20;99.90;;;;;;5072963;28;20283;-90
2024/01/02 09:20:54;;;;;;;0.60;0.60;;;4.30;99.90;;;;;;5068097;28;20572;-91
2024/01/02 09:23:20;;;;;;;0.97;0.97;;;4.30;99.90;;;;;;5072960;28;20205;-90
2024/01/02 09:25:46;;;;;;;0.60;0.60;;;4.30;99.90;;;;;;5066752;28;20444;-88
2024/01/02 09:28:14;;;;;;;0.87;0.87;;;4.20;99.90;;;;;;5071908;28;20492;-88
2024/01/02 09:30:40;;;;;;;0.60;0.60;;;4.20;99.90;;;;;;5052563;28;20910;-88
2024/01/02 09:33:07;;;;;;;0.60;0.60;;;4.20;99.90;;;;;;5069170;28;20523;-89
2024/01/02 09:35:33;;;;;;;4.10;1.17;;;4.20;99.90;;;;;;5069755;28;20175;-90
2024/01/02 09:37:58;;;;;;;0.97;0.87;;;4.20;99.90;;;;;;5054573;28;20474;-90
2024/01/02 09:40:43;;;;;;;0.60;0.60;;;4.30;99.90;;;;;;5073438;28;20646;-91
2024/01/02 09:43:34;;;;;;;1.10;1.10;;;4.20;99.90;;;;;;5072293;28;20170;-90
2024/01/02 09:46:38;;;;;;;0.60;0.60;;;4.30;99.90;;;;;;5073201;28;20554;-91
2024/01/02 09:49:26;;;;;;;0.50;0.50;;;4.30;99.90;;;;;;5072138;28;20486;-91
2024/01/02 09:52:06;;;;;;;0.70;0.70;;;4.40;99.90;;;;;;5072520;28;20365;-89
2024/01/02 09:54:53;;;;;;;0.60;0.60;;;4.40;99.90;;;;;;5055244;28;20432;-90
2024/01/02 09:57:34;;;;;;;0.60;0.60;;;4.40;99.90;;;;;;5062796;28;20459;-90
2024/01/02 10:00:12;;;;;;;1.23;1.13;;;4.40;99.90;;;;;;5071760;28;20444;-91
2024/01/02 10:02:54;;;;;;;0.60;0.60;;;4.40;99.90;;;;;;5055185;28;20473;-91
2024/01/02 10:05:42;;;;;;;0.90;0.90;;;4.40;99.90;;;;;;5071114;28;20424;-90
2024/01/02 10:08:21;;;;;;;0.67;0.67;;;4.40;99.90;;;;;;5067787;28;20519;-91
2024/01/02 10:11:31;;;;;;;0.60;0.60;;;4.40;99.90;;;;;;5068769;28;20420;-90
2024/01/02 10:14:09;;;;;;;0.60;0.60;;;4.50;99.90;;;;;;5062844;28;20986;-89
2024/01/02 10:16:38;;;;;;;;;;;4.50;99.90;;;;;;5069775;28;21025;-89
2024/01/02 10:19:12;;;;;;;;;;;4.40;99.90;;;;;;5071202;28;20022;-89
2024/01/02 10:21:42;;;;;;;;;;;4.50;99.90;;;;;;5054064;28;20342;-90
2024/01/02 10:24:15;;;;;;;;;;;4.50;99.90;;;;;;5047374;28;19919;-90
2024/01/02 10:26:45;;;;;;;;;;;4.50;99.90;;;;;;5072203;28;19961;-88
2024/01/02 10:29:26;;;;;;;0.60;0.60;;;4.50;99.90;;;;;;5065644;28;20256;-90
2024/01/02 10:32:09;;;;;;;0.60;0.60;;;4.40;99.90;;;;;;5067386;28;20857;-91
2024/01/02 10:34:51;;;;;;;0.70;0.70;;;4.40;99.90;;;;;;5070741;28;20432;-90
2024/01/02 10:37:19;;;;;;;0.50;0.50;;;4.50;99.90;;;;;;5054098;28;20417;-89
2024/01/02 10:39:50;;;;;;;0.50;0.50;;;4.50;99.90;;;;;;5071576;28;20429;-89
2024/01/02 10:42:25;;;;;;;0.60;0.60;;;4.40;99.90;;;;;;5071942;28;20582;-88
2024/01/02 10:45:13;;;;;;;1.57;1.47;;;4.40;99.90;;;;;;5052237;28;20428;-90
2024/01/02 10:47:55;;;;;;;10.43;1.90;;;4.50;99.90;;;;;;5071841;28;20586;-90
2024/01/02 10:50:31;;;;;;;0.50;0.50;;;4.50;99.90;;;;;;5072114;28;20782;-89
2024/01/02 10:53:35;;;;;;;1.47;1.47;;;4.50;99.90;;;;;;5058863;28;20428;-89
2024/01/02 10:56:31;;;;;;;0.60;0.60;;;4.50;99.90;;;;;;5057697;28;20428;-90
2024/01/02 10:58:59;;;;;;;0.60;0.60;;;4.50;99.90;;;;;;5068637;28;20420;-90
2024/01/02 11:01:26;;;;;;;0.70;0.70;;;4.50;99.90;;;;;;5069941;28;20490;-89
2024/01/02 11:04:01;;;;;;;0.60;0.60;;;4.50;99.90;;;;;;5070677;28;20434;-89
2024/01/02 11:06:31;;;;;;;0.60;0.60;;;4.40;99.90;;;;;;5050861;28;20809;-89
2024/01/02 11:09:08;;;;;;;0.60;0.60;;;4.50;99.90;;;;;;5052609;28;20491;-90
2024/01/02 11:11:39;;;;;;;0.60;0.60;;;4.40;99.90;;;;;;5052690;28;20453;-89
2024/01/02 11:14:06;;;;;;;0.60;0.60;;;4.40;99.90;;;;;;5062622;28;20986;-89
2024/01/02 11:16:34;;;;;;;0.60;0.60;;;4.40;99.90;;;;;;5070440;28;20416;-89
2024/01/02 11:19:04;;;;;;;0.60;0.60;;;4.40;99.90;;;;;;5069115;28;20443;-88
2024/01/02 11:21:43;;;;;;;0.60;0.60;;;4.40;99.90;;;;;;5070242;28;20527;-90
2024/01/02 11:24:12;;;;;;;1.17;1.17;;;4.40;99.90;;;;;;5065628;28;20478;-91
2024/01/02 11:26:44;;;;;;;0.60;0.60;;;4.40;99.90;;;;;;5052093;28;20944;-90
2024/01/02 11:29:21;;;;;;;0.60;0.60;;;4.40;99.90;;;;;;5069308;28;20488;-92
2024/01/02 11:31:49;;;;;;;0.60;0.60;;;4.40;99.90;;;;;;5051319;28;20439;-90
2024/01/02 11:34:50;;;;;;;0.57;0.57;;;4.40;99.90;;;;;;5061617;28;20438;-89
2024/01/02 11:37:34;;;;;;;0.70;0.70;;;4.40;99.90;;;;;;5045073;28;20512;-86
2024/01/02 11:40:21;;;;;;;0.60;0.60;;;4.40;99.90;;;;;;5063486;28;20479;-86
2024/01/02 11:42:55;;;;;;;0.60;0.60;;;4.40;99.90;;;;;;5069075;28;20424;-86
2024/01/02 11:45:22;;;;;;;0.50;0.50;;;4.40;99.90;;;;;;5068761;28;20970;-87
2024/01/02 11:47:57;;;;;;;0.70;0.70;;;4.40;99.90;;;;;;5068882;28;20483;-87
2024/01/02 11:50:38;;;;;;;0.60;0.60;;;4.40;99.90;;;;;;5065990;28;20532;-85
2024/01/02 11:53:12;;;;;;;0.60;0.60;;;4.40;99.90;;;;;;5069143;28;20438;-85
2024/01/02 11:55:55;;;;;;;0.60;0.60;;;4.40;99.90;;;;;;5052081;28;20452;-85
2024/01/02 11:58:47;;;;;;;2.20;2.10;;;4.40;99.90;;;;;;5056706;28;20454;-85
2024/01/02 12:01:46;;;;;;;0.60;0.60;;;4.40;99.90;;;;;;5061332;28;20452;-83
2024/01/02 12:04:33;;;;;;;0.60;0.60;;;4.30;99.90;;;;;;5060372;28;20447;-83
2024/01/02 12:07:10;;;;;;;0.60;0.60;;;4.30;99.90;;;;;;5055753;28;20521;-90
2024/01/02 12:09:39;;;;;;;0.60;0.60;;;4.30;99.90;;;;;;5042451;28;20498;-92
2024/01/02 12:12:22;;;;;;;0.53;0.53;;;4.30;99.90;;;;;;5067185;28;20478;-93
2024/01/02 12:15:08;;;;;;;0.50;0.50;;;4.30;99.90;;;;;;5053994;28;20873;-93
2024/01/02 12:17:54;;;;;;;0.50;0.50;;;4.30;99.90;;;;;;5052714;28;20464;-92
2024/01/02 12:20:22;;;;;;;0.50;0.50;;;4.30;99.90;;;;;;5059115;28;20446;-90
2024/01/02 12:22:48;;;;;;;0.50;0.50;;;4.30;99.90;;;;;;5058856;28;20436;-90
2024/01/02 12:25:14;;;;;;;0.60;0.60;;;4.20;99.90;;;;;;5070403;28;21141;-90
2024/01/02 12:27:43;;;;;;;0.60;0.60;;;4.20;99.90;;;;;;5054095;28;20206;-91
2024/01/02 12:30:15;;;;;;;0.73;0.73;;;4.30;99.90;;;;;;5071446;28;20440;-91
2024/01/02 12:32:59;;;;;;;0.60;0.60;;;4.30;99.90;;;;;;5050473;28;20422;-90
2024/01/02 12:35:36;;;;;;;0.60;0.60;;;4.30;99.90;;;;;;5054213;28;20493;-90
2024/01/02 12:38:24;;;;;;;0.60;0.60;;;4.30;99.90;;;;;;5066363;28;20428;-90
2024/01/02 12:40:53;;;;;;;0.60;0.60;;;4.30;99.90;;;;;;5063600;28;20523;-91
2024/01/02 12:43:29;;;;;;;0.50;0.50;;;4.30;99.90;;;;;;5071859;28;20511;-91
2024/01/02 12:46:17;;;;;;;0.60;0.60;;;4.30;99.90;;;;;;5071852;28;20461;-91
2024/01/02 12:49:01;;;;;;;0.60;0.60;;;4.30;99.90;;;;;;5076085;28;20471;-90
2024/01/02 12:51:31;;;;;;;0.60;0.60;;;4.30;99.90;;;;;;5075853;28;20417;-90
2024/01/02 12:54:01;;;;;;;0.50;0.50;;;4.30;99.90;;;;;;5074040;28;20436;-92
2024/01/02 12:56:32;;;;;;;0.50;0.50;;;4.30;99.90;;;;;;5054106;28;20793;-90
2024/01/02 12:59:04;;;;;;;0.60;0.60;;;4.30;99.90;;;;;;5050886;28;20473;-91
2024/01/02 13:01:30;;;;;;;0.50;0.50;;;4.30;99.90;;;;;;5076338;28;20465;-91
2024/01/02 13:03:56;;;;;;;0.50;0.50;;;4.30;99.90;;;;;;5077144;28;20470;-91
2024/01/02 13:06:22;;;;;;;0.60;0.60;;;4.30;99.90;;;;;;5075693;28;20428;-89